METAR Data
IDs: Format: Raw Decoded Include TAF

Data at: 1258 UTC 19 Feb 2020

MRPV 191200Z 11018G31KT 9999 FEW025 20/15 A3000 NOSIG

MROC 191200Z 09018KT CAVOK 22/15 A2995 NOSIG

No METAR found for